METAR Data
IDs: Format: Raw Decoded Include TAF

Data at: 1242 UTC 07 Jul 2020

KAQW 071152Z AUTO VRB04KT 10SM CLR 20/16 A3016 RMK AO2 SLP209 T02000156 10217 20167 51010
KAQW 071052Z AUTO 06004KT 10SM CLR 19/15 A3015 RMK AO2 SLP207 T01940150
KAQW 070952Z AUTO 00000KT 10SM CLR 17/15 A3015 RMK AO2 SLP206 T01670150
KAQW 070852Z AUTO 10005KT 10SM CLR 19/14 A3013 RMK AO2 SLP198 T01890144 53001
KAQW 070752Z AUTO 09005KT 10SM CLR 19/16 A3012 RMK AO2 SLP196 T01940156
KAQW 070652Z AUTO 09007KT 050V110 10SM CLR 21/16 A3012 RMK AO2 SLP194 T02060161
KAQW 070552Z AUTO 10008KT 10SM CLR 21/17 A3012 RMK AO2 SLP196 T02110167 10256 20211 50007
KAQW 070452Z AUTO 13012KT 10SM BKN031 22/18 A3012 RMK AO2 SLP197 T02220178 403000144
KAQW 070352Z AUTO 00000KT 10SM BKN032 22/18 A3011 RMK AO2 SLP194 T02220183
KAQW 070252Z AUTO VRB04KT 10SM BKN034 23/18 A3010 RMK AO2 SLP189 T02330183 51012
KAQW 070152Z AUTO VRB06G14KT 10SM SCT050 24/18 A3010 RMK AO2 SLP187 T02440178
KAQW 070052Z AUTO 00000KT 10SM CLR 23/16 A3007 RMK AO2 SLP180 T02280156
KAQW 062352Z AUTO 12006KT 10SM CLR 26/16 A3007 RMK AO2 SLP178 T02560156 10300 20256 53004
KAQW 062252Z AUTO 12006KT 10SM FEW002 28/16 A3006 RMK AO2 SLP177 T02830156
KAQW 062152Z AUTO 00000KT 10SM CLR 30/12 A3005 RMK AO2 SLP174 T03000122
KAQW 062052Z AUTO 00000KT 10SM CLR 30/11 A3005 RMK AO2 SLP173 T03000111 55008
KAQW 061952Z AUTO VRB04KT 10SM CLR 29/11 A3005 RMK AO2 SLP172 T02940106
KAQW 061852Z AUTO 34004KT 10SM CLR 29/14 A3007 RMK AO2 SLP178 T02890139
KAQW 061752Z AUTO VRB06KT 10SM CLR 28/15 A3008 RMK AO2 SLP181 T02830150 10289 20194 55001
KAQW 061652Z AUTO 10SM CLR 28/15 A3007 RMK AO2 SLP181 T02780150
KAQW 061552Z AUTO VRB05KT 10SM CLR 27/16 A3008 RMK AO2 SLP181 T02720161
KAQW 061452Z AUTO VRB06KT 10SM CLR 26/17 A3008 RMK AO2 SLP183 T02610172 53005
KAQW 061352Z AUTO VRB06KT 10SM CLR 24/17 A3007 RMK AO2 SLP180 T02390167
KAQW 061252Z AUTO 25003KT 10SM CLR 22/17 A3007 RMK AO2 SLP180 T02170167
KAQW 061152Z AUTO 00000KT 10SM FEW002 19/16 A3006 RMK AO2 SLP177 T01940161 10194 20144 51014
KAQW 061052Z AUTO 00000KT 10SM CLR 17/15 A3005 RMK AO2 SLP173 T01670150
KAQW 060952Z AUTO 00000KT 8SM CLR 14/14 A3004 RMK AO2 SLP172 T01440139
KAQW 060852Z AUTO 00000KT 10SM CLR 15/14 A3002 RMK AO2 SLP163 T01500139 53011
KAQW 060752Z AUTO 00000KT 10SM CLR 16/14 A3001 RMK AO2 SLP158 T01560144
KAQW 060652Z AUTO 00000KT 10SM CLR 16/15 A2999 RMK AO2 SLP153 T01610150
KAQW 060552Z AUTO 00000KT 10SM CLR 17/15 A2999 RMK AO2 SLP151 T01670150 10272 20167 51006
KAQW 060452Z AUTO 00000KT 10SM CLR 18/16 A2998 RMK AO2 SLP150 T01780161 403060133
KAQW 060352Z AUTO 00000KT 10SM CLR 19/17 A2998 RMK AO2 SLP147 T01890167
KAQW 060252Z AUTO 00000KT 10SM FEW120 20/17 A2997 RMK AO2 SLP145 T02000172 53016
KAQW 060152Z AUTO 00000KT 10SM CLR 21/17 A2996 RMK AO2 SLP141 T02110172
KAQW 060052Z AUTO 00000KT 10SM CLR 23/18 A2993 RMK AO2 SLP132 T02330178